createdAt,value
2018-09-25T00:00:36.496Z,6.30
2018-09-25T00:03:10.199Z,6.30
2018-09-25T00:05:43.883Z,6.30
2018-09-25T00:08:17.553Z,6.30
2018-09-25T00:10:51.227Z,6.30
2018-09-25T00:13:24.891Z,6.30
2018-09-25T00:15:58.643Z,6.30
2018-09-25T00:18:32.384Z,6.20
2018-09-25T00:21:06.164Z,6.20
2018-09-25T00:23:39.994Z,6.20
2018-09-25T00:26:13.884Z,6.20
2018-09-25T00:28:47.735Z,6.20
2018-09-25T00:31:21.546Z,6.20
2018-09-25T00:33:55.230Z,6.20
2018-09-25T00:36:28.946Z,6.10
2018-09-25T00:39:02.650Z,6.10
2018-09-25T00:41:37.334Z,6.10
2018-09-25T00:44:10.987Z,6.00
2018-09-25T00:46:44.811Z,6.00
2018-09-25T00:49:18.454Z,6.00
2018-09-25T00:51:52.328Z,6.00
2018-09-25T00:54:26.005Z,6.00
2018-09-25T00:56:59.731Z,6.00
2018-09-25T00:59:33.435Z,5.90
2018-09-25T01:02:07.176Z,5.90
2018-09-25T01:04:40.915Z,5.90
2018-09-25T01:07:14.772Z,5.80
2018-09-25T01:09:48.669Z,5.80
2018-09-25T01:12:22.512Z,5.90
2018-09-25T01:14:56.264Z,5.80
2018-09-25T01:17:29.896Z,5.80
2018-09-25T01:20:03.472Z,5.70
2018-09-25T01:22:37.189Z,5.70
2018-09-25T01:25:10.846Z,5.70
2018-09-25T01:27:45.500Z,5.70
2018-09-25T01:30:19.328Z,5.70
2018-09-25T01:32:53.933Z,5.70
2018-09-25T01:35:27.415Z,5.60
2018-09-25T01:38:01.057Z,5.60
2018-09-25T01:40:34.733Z,5.60
2018-09-25T01:43:08.460Z,5.60
2018-09-25T01:45:42.151Z,5.50
2018-09-25T01:48:15.672Z,5.50
2018-09-25T01:50:49.319Z,5.50
2018-09-25T01:53:22.992Z,5.40
2018-09-25T01:55:56.714Z,5.40
2018-09-25T01:58:30.472Z,5.30
2018-09-25T02:01:04.219Z,5.40
2018-09-25T02:03:38.023Z,5.50
2018-09-25T02:06:11.952Z,5.40
2018-09-25T02:08:45.623Z,5.50
2018-09-25T02:11:19.441Z,5.50
2018-09-25T02:13:53.115Z,5.50
2018-09-25T02:16:26.951Z,5.40
2018-09-25T02:19:00.623Z,5.50
2018-09-25T02:21:34.290Z,5.50
2018-09-25T02:24:08.099Z,5.50
2018-09-25T02:26:41.927Z,5.50
2018-09-25T02:29:15.560Z,5.50
2018-09-25T02:31:49.325Z,5.50
2018-09-25T02:34:22.966Z,5.60
2018-09-25T02:36:56.605Z,5.60
2018-09-25T02:39:30.357Z,5.50
2018-09-25T02:42:04.026Z,5.40
2018-09-25T02:44:37.667Z,5.40
2018-09-25T02:47:11.418Z,5.40
2018-09-25T02:49:45.180Z,5.30
2018-09-25T02:52:18.987Z,5.30
2018-09-25T02:54:52.725Z,5.30
2018-09-25T02:57:26.388Z,5.30
2018-09-25T03:00:00.330Z,5.30
2018-09-25T03:02:34.023Z,5.30
2018-09-25T03:05:07.693Z,5.30
2018-09-25T03:07:41.450Z,5.30
2018-09-25T03:10:15.281Z,5.20
2018-09-25T03:12:49.124Z,5.20
2018-09-25T03:15:23.086Z,5.20
2018-09-25T03:17:56.743Z,5.20
2018-09-25T03:20:30.446Z,5.20
2018-09-25T03:23:04.275Z,5.20
2018-09-25T03:25:38.076Z,5.20
2018-09-25T03:28:12.675Z,5.20
2018-09-25T03:30:46.350Z,5.10
2018-09-25T03:33:20.064Z,5.10
2018-09-25T03:35:53.677Z,5.10
2018-09-25T03:38:27.542Z,5.10
2018-09-25T03:41:01.211Z,5.10
2018-09-25T03:43:34.949Z,5.10
2018-09-25T03:46:08.694Z,5.10
2018-09-25T03:48:42.310Z,5.10
2018-09-25T03:51:16.102Z,5.00
2018-09-25T03:53:49.703Z,5.00
2018-09-25T03:56:23.552Z,5.00
2018-09-25T03:58:57.335Z,5.00
2018-09-25T04:01:31.161Z,5.00
2018-09-25T04:04:04.891Z,4.90
2018-09-25T04:06:38.537Z,4.90
2018-09-25T04:09:12.688Z,5.00
2018-09-25T04:11:46.526Z,5.00
2018-09-25T04:14:20.304Z,4.90
2018-09-25T04:16:54.011Z,4.90
2018-09-25T04:19:27.761Z,4.80
2018-09-25T04:22:01.486Z,4.80
2018-09-25T04:24:35.059Z,4.80
2018-09-25T04:27:08.692Z,4.80
2018-09-25T04:29:42.311Z,4.70
2018-09-25T04:32:16.103Z,4.80
2018-09-25T04:34:49.771Z,4.80
2018-09-25T04:37:23.343Z,4.80
2018-09-25T04:39:57.106Z,4.80
2018-09-25T04:42:30.802Z,4.80
2018-09-25T04:45:04.444Z,4.80
2018-09-25T04:47:38.131Z,4.80
2018-09-25T04:50:11.713Z,4.80
2018-09-25T04:52:46.221Z,4.90
2018-09-25T04:55:19.942Z,4.90
2018-09-25T04:57:53.775Z,4.90
2018-09-25T05:00:27.430Z,4.90
2018-09-25T05:03:01.179Z,4.90
2018-09-25T05:05:41.543Z,4.90
2018-09-25T05:08:27.417Z,5.00
2018-09-25T05:11:01.053Z,5.00
2018-09-25T05:13:34.868Z,5.00
2018-09-25T05:16:08.624Z,5.10
2018-09-25T05:18:42.465Z,5.10
2018-09-25T05:21:21.673Z,5.10
2018-09-25T05:23:55.394Z,5.20
2018-09-25T05:26:29.280Z,5.40
2018-09-25T05:29:03.076Z,5.50
2018-09-25T05:31:36.764Z,5.50
2018-09-25T05:34:10.484Z,5.40
2018-09-25T05:36:44.188Z,5.70
2018-09-25T05:39:17.847Z,6.50
2018-09-25T05:41:51.500Z,7.30
2018-09-25T05:44:26.139Z,8.00
2018-09-25T05:46:59.868Z,8.60
2018-09-25T05:49:33.652Z,8.80
2018-09-25T05:52:07.622Z,9.30
2018-09-25T05:54:41.420Z,9.60
2018-09-25T05:57:15.092Z,9.80
2018-09-25T05:59:48.777Z,10.00
2018-09-25T06:02:22.667Z,10.60
2018-09-25T06:04:56.320Z,11.00
2018-09-25T06:07:30.080Z,11.30
2018-09-25T06:10:03.809Z,11.40
2018-09-25T06:12:37.511Z,11.60
2018-09-25T06:15:11.270Z,11.90
2018-09-25T06:17:45.873Z,11.90
2018-09-25T06:20:19.628Z,12.00
2018-09-25T06:22:53.296Z,12.30
2018-09-25T06:25:27.043Z,12.40
2018-09-25T06:28:00.840Z,12.30
2018-09-25T06:30:34.446Z,12.30
2018-09-25T06:33:08.035Z,12.70
2018-09-25T06:35:41.717Z,12.40
2018-09-25T06:38:15.397Z,12.70
2018-09-25T06:40:49.125Z,13.00
2018-09-25T06:43:22.673Z,13.10
2018-09-25T06:45:56.260Z,13.20
2018-09-25T06:48:29.908Z,13.60
2018-09-25T06:51:03.793Z,14.10
2018-09-25T06:53:37.546Z,14.00
2018-09-25T06:56:11.392Z,13.70
2018-09-25T06:58:44.915Z,14.00
2018-09-25T07:01:18.746Z,14.30
2018-09-25T07:03:52.490Z,14.10
2018-09-25T07:06:26.145Z,14.30
2018-09-25T07:08:59.856Z,14.50
2018-09-25T07:11:33.563Z,14.50
2018-09-25T07:14:07.269Z,15.10
2018-09-25T07:16:40.933Z,15.20
2018-09-25T07:19:14.740Z,15.30
2018-09-25T07:21:48.488Z,15.50
2018-09-25T07:24:22.235Z,15.80
2018-09-25T07:26:56.061Z,15.70
2018-09-25T07:29:29.978Z,15.20
2018-09-25T07:32:04.618Z,15.30
2018-09-25T07:34:42.599Z,15.60
2018-09-25T07:37:16.445Z,16.00
2018-09-25T07:39:50.157Z,16.40
2018-09-25T07:42:23.703Z,16.50
2018-09-25T07:44:57.288Z,16.40
2018-09-25T07:47:31.140Z,16.40
2018-09-25T07:50:04.783Z,16.20
2018-09-25T07:52:38.463Z,16.10
2018-09-25T07:55:12.079Z,16.40
2018-09-25T07:57:45.729Z,16.70
2018-09-25T08:00:19.455Z,16.70
2018-09-25T08:02:53.327Z,16.90
2018-09-25T08:05:26.975Z,16.80
2018-09-25T08:08:00.853Z,16.80
2018-09-25T08:10:34.523Z,17.10
2018-09-25T08:13:08.285Z,17.00
2018-09-25T08:15:42.014Z,17.30
2018-09-25T08:18:16.007Z,16.90
2018-09-25T08:20:49.707Z,17.40
2018-09-25T08:23:23.492Z,17.20
2018-09-25T08:25:57.392Z,17.60
2018-09-25T08:28:31.100Z,17.70
2018-09-25T08:31:04.695Z,17.90
2018-09-25T08:33:39.558Z,17.80
2018-09-25T08:36:13.218Z,18.30
2018-09-25T08:38:47.024Z,18.40
2018-09-25T08:41:21.326Z,18.30
2018-09-25T08:43:55.246Z,18.00
2018-09-25T08:46:28.909Z,18.10
2018-09-25T08:49:02.655Z,18.50
2018-09-25T08:51:36.376Z,18.80
2018-09-25T08:54:10.098Z,18.50
2018-09-25T08:56:43.796Z,18.10
2018-09-25T08:59:18.488Z,18.20
2018-09-25T09:01:52.152Z,18.90
2018-09-25T09:04:25.930Z,18.40
2018-09-25T09:06:59.532Z,18.50
2018-09-25T09:09:33.237Z,18.30
2018-09-25T09:12:06.891Z,18.40
2018-09-25T09:14:40.756Z,18.80
2018-09-25T09:17:14.632Z,19.30
2018-09-25T09:19:48.334Z,19.40
2018-09-25T09:22:21.992Z,19.10
2018-09-25T09:24:55.710Z,19.40
2018-09-25T09:27:29.419Z,19.50
2018-09-25T09:30:03.311Z,19.20
2018-09-25T09:32:37.012Z,18.80
2018-09-25T09:35:10.777Z,18.50
2018-09-25T09:37:44.382Z,19.20
2018-09-25T09:40:18.065Z,19.10
2018-09-25T09:42:51.711Z,19.20
2018-09-25T09:45:25.603Z,19.30
2018-09-25T09:47:59.397Z,19.60
2018-09-25T09:50:33.134Z,18.90
2018-09-25T09:53:06.791Z,18.50
2018-09-25T09:55:40.656Z,19.10
2018-09-25T09:58:14.547Z,18.90
2018-09-25T10:00:50.224Z,19.00
2018-09-25T10:03:23.921Z,19.50
2018-09-25T10:05:57.539Z,19.10
2018-09-25T10:08:31.291Z,18.50
2018-09-25T10:11:04.942Z,19.10
2018-09-25T10:13:38.535Z,19.20
2018-09-25T10:16:12.542Z,19.70
2018-09-25T10:18:46.354Z,19.70
2018-09-25T10:21:20.120Z,19.80
2018-09-25T10:23:53.761Z,20.40
2018-09-25T10:26:27.586Z,19.70
2018-09-25T10:29:01.327Z,19.60
2018-09-25T10:31:35.175Z,19.10
2018-09-25T10:34:09.080Z,19.20
2018-09-25T10:36:42.648Z,18.50
2018-09-25T10:39:16.334Z,18.70
2018-09-25T10:41:50.048Z,19.10
2018-09-25T10:44:23.717Z,18.60
2018-09-25T10:46:57.452Z,18.60
2018-09-25T10:49:31.089Z,19.10
2018-09-25T10:52:05.062Z,18.00
2018-09-25T10:54:38.667Z,18.30
2018-09-25T10:57:12.419Z,18.30
2018-09-25T10:59:46.299Z,18.30
2018-09-25T11:02:20.261Z,18.50
2018-09-25T11:04:53.963Z,17.60
2018-09-25T11:07:27.728Z,18.20
2018-09-25T11:10:02.508Z,18.80
2018-09-25T11:12:36.182Z,19.00
2018-09-25T11:15:09.980Z,19.00
2018-09-25T11:17:43.679Z,18.10
2018-09-25T11:20:17.333Z,18.10
2018-09-25T11:22:51.016Z,18.30
2018-09-25T11:25:24.713Z,18.40
2018-09-25T11:27:58.415Z,17.90
2018-09-25T11:30:32.103Z,18.00
2018-09-25T11:33:05.876Z,18.10
2018-09-25T11:35:39.586Z,17.80
2018-09-25T11:38:13.208Z,17.20
2018-09-25T11:40:46.945Z,17.00
2018-09-25T11:43:21.627Z,16.60
2018-09-25T11:45:55.278Z,16.60
2018-09-25T11:48:28.957Z,16.90
2018-09-25T11:51:02.689Z,17.40
2018-09-25T11:53:36.486Z,17.40
2018-09-25T11:56:10.302Z,16.80
2018-09-25T11:58:44.008Z,16.60
2018-09-25T12:01:17.740Z,16.80
2018-09-25T12:03:51.488Z,17.60
2018-09-25T12:06:25.367Z,18.00
2018-09-25T12:08:59.107Z,17.30
2018-09-25T12:11:32.774Z,16.60
2018-09-25T12:14:06.446Z,16.90
2018-09-25T12:16:40.079Z,16.80
2018-09-25T12:19:13.787Z,16.20
2018-09-25T12:21:47.443Z,15.30
2018-09-25T12:24:21.111Z,15.20
2018-09-25T12:26:54.926Z,15.80
2018-09-25T12:29:28.849Z,15.60
2018-09-25T12:32:02.647Z,15.70
2018-09-25T12:34:36.455Z,15.50
2018-09-25T12:37:10.159Z,15.30
2018-09-25T12:39:46.651Z,15.10
2018-09-25T12:42:20.499Z,15.30
2018-09-25T12:44:54.181Z,15.90
2018-09-25T12:47:27.872Z,16.10
2018-09-25T12:50:01.537Z,15.90
2018-09-25T12:52:35.351Z,15.30
2018-09-25T12:55:10.175Z,15.30
2018-09-25T12:57:44.014Z,15.30
2018-09-25T13:00:17.727Z,15.50
2018-09-25T13:02:51.510Z,15.40
2018-09-25T13:05:25.397Z,15.20
2018-09-25T13:07:59.192Z,15.10
2018-09-25T13:10:33.811Z,15.10
2018-09-25T13:13:08.542Z,14.60
2018-09-25T13:15:42.199Z,14.50
2018-09-25T13:18:15.896Z,14.30
2018-09-25T13:20:49.493Z,14.80
2018-09-25T13:23:23.191Z,14.80
2018-09-25T13:25:56.962Z,14.80
2018-09-25T13:28:30.525Z,14.80
2018-09-25T13:31:04.160Z,15.10
2018-09-25T13:33:37.901Z,15.30
2018-09-25T13:36:11.796Z,15.20
2018-09-25T13:38:45.492Z,15.30
2018-09-25T13:41:19.177Z,15.60
2018-09-25T13:43:52.999Z,15.80
2018-09-25T13:46:26.850Z,15.90
2018-09-25T13:49:00.558Z,15.70
2018-09-25T13:51:34.309Z,15.90
2018-09-25T13:54:07.931Z,15.90
2018-09-25T13:56:41.789Z,15.90
2018-09-25T13:59:15.438Z,15.90
2018-09-25T14:01:49.212Z,15.80
2018-09-25T14:04:23.951Z,15.50
2018-09-25T14:06:57.619Z,15.20
2018-09-25T14:09:31.310Z,14.80
2018-09-25T14:12:06.045Z,14.70
2018-09-25T14:14:39.711Z,14.90
2018-09-25T14:17:13.588Z,15.20
2018-09-25T14:19:47.353Z,15.50
2018-09-25T14:22:21.114Z,15.60
2018-09-25T14:24:54.843Z,15.70
2018-09-25T14:27:28.614Z,15.50
2018-09-25T14:30:02.208Z,15.50
2018-09-25T14:32:35.975Z,15.40
2018-09-25T14:35:09.796Z,15.50
2018-09-25T14:37:43.535Z,15.60
2018-09-25T14:40:17.355Z,15.90
2018-09-25T14:42:51.116Z,15.90
2018-09-25T14:45:24.794Z,15.90
2018-09-25T14:47:58.656Z,15.70
2018-09-25T14:50:32.378Z,15.50
2018-09-25T14:53:16.963Z,15.00
2018-09-25T14:55:50.670Z,14.60
2018-09-25T14:58:25.297Z,14.30
2018-09-25T15:00:59.075Z,14.30
2018-09-25T15:03:32.720Z,14.10
2018-09-25T15:06:06.380Z,14.00
2018-09-25T15:08:40.137Z,13.80
2018-09-25T15:11:13.901Z,14.00
2018-09-25T15:13:47.531Z,14.00
2018-09-25T15:16:21.269Z,14.10
2018-09-25T15:18:54.908Z,14.00
2018-09-25T15:21:28.553Z,13.90
2018-09-25T15:24:02.247Z,13.80
2018-09-25T15:26:36.037Z,13.80
2018-09-25T15:29:09.651Z,13.90
2018-09-25T15:31:43.346Z,14.00
2018-09-25T15:34:17.105Z,14.10
2018-09-25T15:36:50.757Z,14.10
2018-09-25T15:39:24.421Z,14.10
2018-09-25T15:41:58.356Z,14.00
2018-09-25T15:44:32.074Z,14.10
2018-09-25T15:47:05.785Z,14.00
2018-09-25T15:49:39.832Z,13.90
2018-09-25T15:52:13.476Z,13.90
2018-09-25T15:54:47.078Z,13.80
2018-09-25T15:57:20.831Z,13.80
2018-09-25T15:59:54.483Z,13.80
2018-09-25T16:02:28.115Z,13.70
2018-09-25T16:05:01.724Z,13.70
2018-09-25T16:07:35.563Z,13.60
2018-09-25T16:10:09.305Z,13.60
2018-09-25T16:12:42.955Z,13.50
2018-09-25T16:15:16.632Z,13.40
2018-09-25T16:17:50.398Z,13.30
2018-09-25T16:20:24.031Z,13.20
2018-09-25T16:22:57.676Z,13.20
2018-09-25T16:25:31.446Z,13.10
2018-09-25T16:28:05.332Z,13.00
2018-09-25T16:30:38.918Z,12.90
2018-09-25T16:33:12.563Z,12.80
2018-09-25T16:35:46.163Z,12.70
2018-09-25T16:38:19.917Z,12.50
2018-09-25T16:40:53.624Z,12.40
2018-09-25T16:43:27.364Z,12.30
2018-09-25T16:46:00.982Z,12.10
2018-09-25T16:48:34.709Z,11.90
2018-09-25T16:51:08.577Z,11.90
2018-09-25T16:53:42.174Z,11.80
2018-09-25T16:56:15.776Z,11.60
2018-09-25T16:58:49.387Z,11.60
2018-09-25T17:01:23.149Z,11.40
2018-09-25T17:03:56.949Z,11.40
2018-09-25T17:06:30.678Z,11.30
2018-09-25T17:09:04.432Z,11.30
2018-09-25T17:11:38.229Z,11.10
2018-09-25T17:14:12.106Z,11.00
2018-09-25T17:16:45.754Z,10.90
2018-09-25T17:19:19.568Z,10.90
2018-09-25T17:22:12.635Z,10.80
2018-09-25T17:24:50.116Z,10.70
2018-09-25T17:27:23.841Z,10.60
2018-09-25T17:29:57.604Z,10.50
2018-09-25T17:32:31.284Z,10.40
2018-09-25T17:35:05.005Z,10.30
2018-09-25T17:37:38.707Z,10.20
2018-09-25T17:40:12.234Z,10.10
2018-09-25T17:42:46.989Z,10.10
2018-09-25T17:45:20.664Z,10.00
2018-09-25T17:47:54.468Z,9.90
2018-09-25T17:50:28.160Z,9.90
2018-09-25T17:53:01.858Z,9.80
2018-09-25T17:55:35.600Z,9.80
2018-09-25T17:58:09.269Z,9.70
2018-09-25T18:00:43.074Z,9.70
2018-09-25T18:03:16.811Z,9.60
2018-09-25T18:05:50.602Z,9.60
2018-09-25T18:08:24.314Z,9.50
2018-09-25T18:10:58.084Z,9.50
2018-09-25T18:13:31.932Z,9.40
2018-09-25T18:16:05.598Z,9.30
2018-09-25T18:18:39.251Z,9.30
2018-09-25T18:21:12.957Z,9.20
2018-09-25T18:23:46.698Z,9.10
2018-09-25T18:26:20.462Z,9.10
2018-09-25T18:28:54.087Z,9.00
2018-09-25T18:31:27.799Z,8.90
2018-09-25T18:34:01.727Z,8.90
2018-09-25T18:36:35.520Z,8.80
2018-09-25T18:39:10.723Z,8.70
2018-09-25T18:41:44.471Z,8.70
2018-09-25T18:44:18.243Z,8.60
2018-09-25T18:46:51.974Z,8.50
2018-09-25T18:49:25.586Z,8.40
2018-09-25T18:51:59.228Z,8.30
2018-09-25T18:54:32.897Z,8.20
2018-09-25T18:57:06.600Z,8.10
2018-09-25T18:59:40.272Z,8.00
2018-09-25T19:02:13.901Z,7.90
2018-09-25T19:04:47.717Z,7.80
2018-09-25T19:07:21.419Z,7.70
2018-09-25T19:09:55.048Z,7.70
2018-09-25T19:12:28.820Z,7.60
2018-09-25T19:15:02.511Z,7.60
2018-09-25T19:17:36.435Z,7.50
2018-09-25T19:20:10.040Z,7.50
2018-09-25T19:22:43.838Z,7.40
2018-09-25T19:25:17.410Z,7.40
2018-09-25T19:27:51.143Z,7.40
2018-09-25T19:30:24.757Z,7.30
2018-09-25T19:32:58.639Z,7.30
2018-09-25T19:35:32.260Z,7.30
2018-09-25T19:38:05.944Z,7.30
2018-09-25T19:40:39.611Z,7.30
2018-09-25T19:43:14.424Z,7.20
2018-09-25T19:45:49.297Z,7.20
2018-09-25T19:48:36.922Z,7.10
2018-09-25T19:51:14.558Z,7.10
2018-09-25T19:53:48.277Z,7.10
2018-09-25T19:56:21.979Z,7.10
2018-09-25T19:58:55.637Z,7.00
2018-09-25T20:01:29.298Z,7.00
2018-09-25T20:04:02.954Z,7.00
2018-09-25T20:06:36.800Z,7.00
2018-09-25T20:09:12.970Z,7.00
2018-09-25T20:11:46.947Z,7.00
2018-09-25T20:14:20.648Z,7.00
2018-09-25T20:16:54.352Z,7.10
2018-09-25T20:19:28.165Z,7.00
2018-09-25T20:22:01.753Z,7.00
2018-09-25T20:24:35.402Z,6.90
2018-09-25T20:27:09.229Z,6.80
2018-09-25T20:29:42.969Z,6.80
2018-09-25T20:32:16.627Z,6.80
2018-09-25T20:34:50.423Z,6.80
2018-09-25T20:37:24.407Z,6.70
2018-09-25T20:39:58.112Z,6.70
2018-09-25T20:42:31.759Z,6.60
2018-09-25T20:45:05.469Z,6.60
2018-09-25T20:47:39.145Z,6.50
2018-09-25T20:50:12.867Z,6.40
2018-09-25T20:52:46.509Z,6.30
2018-09-25T20:55:20.305Z,6.30
2018-09-25T20:57:54.054Z,6.20
2018-09-25T21:00:27.752Z,6.10
2018-09-25T21:03:01.396Z,6.10
2018-09-25T21:05:35.249Z,6.00
2018-09-25T21:08:08.960Z,6.00
2018-09-25T21:10:42.616Z,6.00
2018-09-25T21:13:16.348Z,6.00
2018-09-25T21:15:50.158Z,6.00
2018-09-25T21:18:23.935Z,5.90
2018-09-25T21:20:57.670Z,5.90
2018-09-25T21:23:31.299Z,5.80
2018-09-25T21:26:05.055Z,5.80
2018-09-25T21:28:40.031Z,5.70
2018-09-25T21:31:13.771Z,5.70
2018-09-25T21:33:48.300Z,5.70
2018-09-25T21:36:22.184Z,5.70
2018-09-25T21:38:55.900Z,5.70
2018-09-25T21:41:29.705Z,5.60
2018-09-25T21:44:03.424Z,5.60
2018-09-25T21:46:37.258Z,5.60
2018-09-25T21:49:10.954Z,5.60
2018-09-25T21:51:44.781Z,5.60
2018-09-25T21:54:18.359Z,5.60
2018-09-25T21:58:51.847Z,5.50
2018-09-25T22:01:25.921Z,5.50
2018-09-25T22:03:59.919Z,5.50
2018-09-25T22:06:33.602Z,5.50
2018-09-25T22:09:07.441Z,5.40
2018-09-25T22:11:41.106Z,5.40
2018-09-25T22:14:14.810Z,5.40
2018-09-25T22:16:48.540Z,5.40
2018-09-25T22:19:22.325Z,5.40
2018-09-25T22:21:56.118Z,5.40
2018-09-25T22:24:30.023Z,5.40
2018-09-25T22:27:03.792Z,5.40
2018-09-25T22:29:37.531Z,5.40
2018-09-25T22:32:11.236Z,5.30
2018-09-25T22:34:44.864Z,5.30
2018-09-25T22:37:18.677Z,5.30
2018-09-25T22:39:52.346Z,5.30
2018-09-25T22:42:26.002Z,5.30
2018-09-25T22:44:59.752Z,5.30
2018-09-25T22:47:33.766Z,5.30
2018-09-25T22:50:07.583Z,5.30
2018-09-25T22:52:41.366Z,5.40
2018-09-25T22:55:15.393Z,5.40
2018-09-25T22:57:49.315Z,5.40
2018-09-25T23:00:23.157Z,5.40
2018-09-25T23:02:57.123Z,5.40
2018-09-25T23:05:31.226Z,5.40
2018-09-25T23:08:05.235Z,5.30
2018-09-25T23:10:38.881Z,5.40
2018-09-25T23:13:12.711Z,5.30
2018-09-25T23:15:46.462Z,5.30
2018-09-25T23:18:20.351Z,5.20
2018-09-25T23:20:54.228Z,5.20
2018-09-25T23:23:27.998Z,5.20
2018-09-25T23:26:01.799Z,5.10
2018-09-25T23:28:35.665Z,5.10
2018-09-25T23:31:09.627Z,5.20
2018-09-25T23:33:43.349Z,5.10
2018-09-25T23:36:17.254Z,5.20
2018-09-25T23:38:51.108Z,5.20
2018-09-25T23:41:26.855Z,5.20
2018-09-25T23:44:00.689Z,5.20
2018-09-25T23:46:41.228Z,5.30
2018-09-25T23:49:14.741Z,5.30
2018-09-25T23:51:53.347Z,5.20
2018-09-25T23:55:24.540Z,5.20
2018-09-25T23:57:57.351Z,5.20
